sensor_id;sensor_type;location;lat;lon;timestamp;temperature;humidity
25436;DHT22;13363;52.772;-3.890;2023-03-14T00:00:34;7.10;99.90
25436;DHT22;13363;52.772;-3.890;2023-03-14T00:02:59;7.10;99.90
25436;DHT22;13363;52.772;-3.890;2023-03-14T00:05:25;7.10;99.90
25436;DHT22;13363;52.772;-3.890;2023-03-14T00:07:51;6.90;99.90
25436;DHT22;13363;52.772;-3.890;2023-03-14T00:10:17;6.80;99.90
25436;DHT22;13363;52.772;-3.890;2023-03-14T00:12:43;6.80;99.90
25436;DHT22;13363;52.772;-3.890;2023-03-14T00:15:10;6.70;99.90
25436;DHT22;13363;52.772;-3.890;2023-03-14T00:17:36;6.70;99.90
25436;DHT22;13363;52.772;-3.890;2023-03-14T00:20:04;6.70;99.90
25436;DHT22;13363;52.772;-3.890;2023-03-14T00:22:34;6.90;99.90
25436;DHT22;13363;52.772;-3.890;2023-03-14T00:25:00;6.90;99.90
25436;DHT22;13363;52.772;-3.890;2023-03-14T00:27:26;6.90;99.90
25436;DHT22;13363;52.772;-3.890;2023-03-14T00:29:52;6.90;99.90
25436;DHT22;13363;52.772;-3.890;2023-03-14T00:32:17;6.90;99.90
25436;DHT22;13363;52.772;-3.890;2023-03-14T00:34:43;6.80;99.90
25436;DHT22;13363;52.772;-3.890;2023-03-14T00:37:09;6.80;99.90
25436;DHT22;13363;52.772;-3.890;2023-03-14T00:39:34;6.80;99.90
25436;DHT22;13363;52.772;-3.890;2023-03-14T00:42:00;6.90;99.90
25436;DHT22;13363;52.772;-3.890;2023-03-14T00:44:26;6.80;99.90
25436;DHT22;13363;52.772;-3.890;2023-03-14T00:46:52;6.90;99.90
25436;DHT22;13363;52.772;-3.890;2023-03-14T00:49:17;6.80;99.90
25436;DHT22;13363;52.772;-3.890;2023-03-14T00:51:43;6.80;99.90
25436;DHT22;13363;52.772;-3.890;2023-03-14T00:54:09;6.70;99.90
25436;DHT22;13363;52.772;-3.890;2023-03-14T00:56:34;6.90;99.90
25436;DHT22;13363;52.772;-3.890;2023-03-14T00:59:00;6.80;99.90
25436;DHT22;13363;52.772;-3.890;2023-03-14T01:01:26;6.90;99.90
25436;DHT22;13363;52.772;-3.890;2023-03-14T01:03:53;7.10;99.90
25436;DHT22;13363;52.772;-3.890;2023-03-14T01:06:22;7.10;99.90
25436;DHT22;13363;52.772;-3.890;2023-03-14T01:08:48;7.00;99.90
25436;DHT22;13363;52.772;-3.890;2023-03-14T01:11:17;6.90;99.90
25436;DHT22;13363;52.772;-3.890;2023-03-14T01:13:43;6.90;99.90
25436;DHT22;13363;52.772;-3.890;2023-03-14T01:16:10;6.90;99.90
25436;DHT22;13363;52.772;-3.890;2023-03-14T01:18:37;7.00;99.90
25436;DHT22;13363;52.772;-3.890;2023-03-14T01:21:11;6.90;99.90
25436;DHT22;13363;52.772;-3.890;2023-03-14T01:23:37;7.10;99.90
25436;DHT22;13363;52.772;-3.890;2023-03-14T01:26:03;7.00;99.90
25436;DHT22;13363;52.772;-3.890;2023-03-14T01:28:29;6.90;99.90
25436;DHT22;13363;52.772;-3.890;2023-03-14T01:30:54;6.90;99.90
25436;DHT22;13363;52.772;-3.890;2023-03-14T01:33:20;6.80;99.90
25436;DHT22;13363;52.772;-3.890;2023-03-14T01:35:46;6.80;99.90
25436;DHT22;13363;52.772;-3.890;2023-03-14T01:38:14;6.80;99.90
25436;DHT22;13363;52.772;-3.890;2023-03-14T01:40:45;7.00;99.90
25436;DHT22;13363;52.772;-3.890;2023-03-14T01:43:19;7.10;99.90
25436;DHT22;13363;52.772;-3.890;2023-03-14T01:48:37;7.10;99.90
25436;DHT22;13363;52.772;-3.890;2023-03-14T01:51:06;7.00;99.90
25436;DHT22;13363;52.772;-3.890;2023-03-14T01:53:32;6.90;99.90
25436;DHT22;13363;52.772;-3.890;2023-03-14T01:55:59;6.80;99.90
25436;DHT22;13363;52.772;-3.890;2023-03-14T01:58:27;7.00;99.90
25436;DHT22;13363;52.772;-3.890;2023-03-14T02:00:56;7.00;99.90
25436;DHT22;13363;52.772;-3.890;2023-03-14T02:03:23;7.10;99.90
25436;DHT22;13363;52.772;-3.890;2023-03-14T02:05:50;7.00;99.90
25436;DHT22;13363;52.772;-3.890;2023-03-14T02:08:19;7.10;99.90
25436;DHT22;13363;52.772;-3.890;2023-03-14T02:10:48;7.00;99.90
25436;DHT22;13363;52.772;-3.890;2023-03-14T02:13:16;7.00;99.90
25436;DHT22;13363;52.772;-3.890;2023-03-14T02:15:42;6.90;99.90
25436;DHT22;13363;52.772;-3.890;2023-03-14T02:18:09;7.10;99.90
25436;DHT22;13363;52.772;-3.890;2023-03-14T02:20:52;7.10;99.90
25436;DHT22;13363;52.772;-3.890;2023-03-14T02:23:31;7.10;99.90
25436;DHT22;13363;52.772;-3.890;2023-03-14T02:26:15;7.20;99.90
25436;DHT22;13363;52.772;-3.890;2023-03-14T02:28:42;7.20;99.90
25436;DHT22;13363;52.772;-3.890;2023-03-14T02:31:08;7.10;99.90
25436;DHT22;13363;52.772;-3.890;2023-03-14T02:33:35;7.20;99.90
25436;DHT22;13363;52.772;-3.890;2023-03-14T02:36:07;7.10;99.90
25436;DHT22;13363;52.772;-3.890;2023-03-14T02:39:02;7.00;99.90
25436;DHT22;13363;52.772;-3.890;2023-03-14T02:41:30;7.10;99.90
25436;DHT22;13363;52.772;-3.890;2023-03-14T02:43:56;7.10;99.90
25436;DHT22;13363;52.772;-3.890;2023-03-14T02:46:22;7.10;99.90
25436;DHT22;13363;52.772;-3.890;2023-03-14T02:48:51;7.20;99.90
25436;DHT22;13363;52.772;-3.890;2023-03-14T02:51:20;7.10;99.90
25436;DHT22;13363;52.772;-3.890;2023-03-14T02:53:46;7.00;99.90
25436;DHT22;13363;52.772;-3.890;2023-03-14T02:56:12;6.90;99.90
25436;DHT22;13363;52.772;-3.890;2023-03-14T02:58:38;6.70;99.90
25436;DHT22;13363;52.772;-3.890;2023-03-14T03:01:04;6.60;99.90
25436;DHT22;13363;52.772;-3.890;2023-03-14T03:03:29;6.60;99.90
25436;DHT22;13363;52.772;-3.890;2023-03-14T03:05:56;6.60;99.90
25436;DHT22;13363;52.772;-3.890;2023-03-14T03:08:24;6.60;99.90
25436;DHT22;13363;52.772;-3.890;2023-03-14T03:10:51;6.60;99.90
25436;DHT22;13363;52.772;-3.890;2023-03-14T03:13:18;6.60;99.90
25436;DHT22;13363;52.772;-3.890;2023-03-14T03:15:44;6.60;99.90
25436;DHT22;13363;52.772;-3.890;2023-03-14T03:18:09;6.50;99.90
25436;DHT22;13363;52.772;-3.890;2023-03-14T03:20:35;6.40;99.90
25436;DHT22;13363;52.772;-3.890;2023-03-14T03:23:01;6.50;99.90
25436;DHT22;13363;52.772;-3.890;2023-03-14T03:25:28;6.40;99.90
25436;DHT22;13363;52.772;-3.890;2023-03-14T03:27:54;6.50;99.90
25436;DHT22;13363;52.772;-3.890;2023-03-14T03:30:20;6.50;99.90
25436;DHT22;13363;52.772;-3.890;2023-03-14T03:32:46;6.60;99.90
25436;DHT22;13363;52.772;-3.890;2023-03-14T03:35:12;6.60;99.90
25436;DHT22;13363;52.772;-3.890;2023-03-14T03:37:38;6.70;99.90
25436;DHT22;13363;52.772;-3.890;2023-03-14T03:40:05;6.50;99.90
25436;DHT22;13363;52.772;-3.890;2023-03-14T03:42:32;6.50;99.90
25436;DHT22;13363;52.772;-3.890;2023-03-14T03:44:59;6.40;99.90
25436;DHT22;13363;52.772;-3.890;2023-03-14T03:47:25;6.30;99.90
25436;DHT22;13363;52.772;-3.890;2023-03-14T03:49:51;6.30;99.90
25436;DHT22;13363;52.772;-3.890;2023-03-14T03:52:17;6.40;99.90
25436;DHT22;13363;52.772;-3.890;2023-03-14T03:54:43;6.30;99.90
25436;DHT22;13363;52.772;-3.890;2023-03-14T03:57:09;6.20;99.90
25436;DHT22;13363;52.772;-3.890;2023-03-14T03:59:35;6.20;99.90
25436;DHT22;13363;52.772;-3.890;2023-03-14T04:02:01;6.10;99.90
25436;DHT22;13363;52.772;-3.890;2023-03-14T04:04:26;6.00;99.90
25436;DHT22;13363;52.772;-3.890;2023-03-14T04:06:52;6.00;99.90
25436;DHT22;13363;52.772;-3.890;2023-03-14T04:09:18;5.90;99.90
25436;DHT22;13363;52.772;-3.890;2023-03-14T04:11:44;5.80;99.90
25436;DHT22;13363;52.772;-3.890;2023-03-14T04:14:09;5.90;99.90
25436;DHT22;13363;52.772;-3.890;2023-03-14T04:16:35;5.80;99.90
25436;DHT22;13363;52.772;-3.890;2023-03-14T04:19:01;5.90;99.90
25436;DHT22;13363;52.772;-3.890;2023-03-14T04:21:27;5.80;99.90
25436;DHT22;13363;52.772;-3.890;2023-03-14T04:23:53;5.80;99.90
25436;DHT22;13363;52.772;-3.890;2023-03-14T04:26:19;5.80;99.90
25436;DHT22;13363;52.772;-3.890;2023-03-14T04:28:45;5.80;99.90
25436;DHT22;13363;52.772;-3.890;2023-03-14T04:31:16;5.80;99.90
25436;DHT22;13363;52.772;-3.890;2023-03-14T04:33:42;5.80;99.90
25436;DHT22;13363;52.772;-3.890;2023-03-14T04:36:08;5.80;99.90
25436;DHT22;13363;52.772;-3.890;2023-03-14T04:38:34;5.80;99.90
25436;DHT22;13363;52.772;-3.890;2023-03-14T04:41:00;5.80;99.90
25436;DHT22;13363;52.772;-3.890;2023-03-14T04:43:27;5.80;99.90
25436;DHT22;13363;52.772;-3.890;2023-03-14T04:45:57;5.70;99.90
25436;DHT22;13363;52.772;-3.890;2023-03-14T04:48:24;5.70;99.90
25436;DHT22;13363;52.772;-3.890;2023-03-14T04:50:50;5.60;99.90
25436;DHT22;13363;52.772;-3.890;2023-03-14T04:53:16;5.50;99.90
25436;DHT22;13363;52.772;-3.890;2023-03-14T04:55:46;5.50;99.90
25436;DHT22;13363;52.772;-3.890;2023-03-14T04:58:12;5.40;99.90
25436;DHT22;13363;52.772;-3.890;2023-03-14T05:00:38;5.30;99.90
25436;DHT22;13363;52.772;-3.890;2023-03-14T05:03:03;5.20;99.90
25436;DHT22;13363;52.772;-3.890;2023-03-14T05:05:29;5.10;99.90
25436;DHT22;13363;52.772;-3.890;2023-03-14T05:07:55;5.10;99.90
25436;DHT22;13363;52.772;-3.890;2023-03-14T05:10:20;5.00;99.90
25436;DHT22;13363;52.772;-3.890;2023-03-14T05:12:46;5.00;99.90
25436;DHT22;13363;52.772;-3.890;2023-03-14T05:15:12;5.00;99.90
25436;DHT22;13363;52.772;-3.890;2023-03-14T05:17:37;5.00;99.90
25436;DHT22;13363;52.772;-3.890;2023-03-14T05:20:04;5.00;99.90
25436;DHT22;13363;52.772;-3.890;2023-03-14T05:22:38;4.90;99.90
25436;DHT22;13363;52.772;-3.890;2023-03-14T05:25:05;4.90;99.90
25436;DHT22;13363;52.772;-3.890;2023-03-14T05:27:30;4.80;99.90
25436;DHT22;13363;52.772;-3.890;2023-03-14T05:29:56;4.80;99.90
25436;DHT22;13363;52.772;-3.890;2023-03-14T05:32:22;4.70;99.90
25436;DHT22;13363;52.772;-3.890;2023-03-14T05:34:47;4.70;99.90
25436;DHT22;13363;52.772;-3.890;2023-03-14T05:37:13;4.70;99.90
25436;DHT22;13363;52.772;-3.890;2023-03-14T05:39:39;4.70;99.90
25436;DHT22;13363;52.772;-3.890;2023-03-14T05:42:04;4.70;99.90
25436;DHT22;13363;52.772;-3.890;2023-03-14T05:44:30;4.70;99.90
25436;DHT22;13363;52.772;-3.890;2023-03-14T05:46:56;4.70;99.90
25436;DHT22;13363;52.772;-3.890;2023-03-14T05:49:21;4.90;99.90
25436;DHT22;13363;52.772;-3.890;2023-03-14T05:51:47;4.90;99.90
25436;DHT22;13363;52.772;-3.890;2023-03-14T05:54:13;4.90;99.90
25436;DHT22;13363;52.772;-3.890;2023-03-14T05:56:38;5.00;99.90
25436;DHT22;13363;52.772;-3.890;2023-03-14T05:59:04;5.10;99.90
25436;DHT22;13363;52.772;-3.890;2023-03-14T06:01:30;5.10;99.90
25436;DHT22;13363;52.772;-3.890;2023-03-14T06:03:56;5.20;99.90
25436;DHT22;13363;52.772;-3.890;2023-03-14T06:06:22;5.20;99.90
25436;DHT22;13363;52.772;-3.890;2023-03-14T06:08:47;5.20;99.90
25436;DHT22;13363;52.772;-3.890;2023-03-14T06:11:13;5.20;99.90
25436;DHT22;13363;52.772;-3.890;2023-03-14T06:13:39;5.30;99.90
25436;DHT22;13363;52.772;-3.890;2023-03-14T06:16:05;5.30;99.90
25436;DHT22;13363;52.772;-3.890;2023-03-14T06:18:31;5.20;99.90
25436;DHT22;13363;52.772;-3.890;2023-03-14T06:20:57;5.20;99.90
25436;DHT22;13363;52.772;-3.890;2023-03-14T06:23:23;5.20;99.90
25436;DHT22;13363;52.772;-3.890;2023-03-14T06:25:48;5.20;99.90
25436;DHT22;13363;52.772;-3.890;2023-03-14T06:28:14;5.10;99.90
25436;DHT22;13363;52.772;-3.890;2023-03-14T06:30:41;5.00;99.90
25436;DHT22;13363;52.772;-3.890;2023-03-14T06:33:06;4.90;99.90
25436;DHT22;13363;52.772;-3.890;2023-03-14T06:35:32;4.80;99.90
25436;DHT22;13363;52.772;-3.890;2023-03-14T06:37:58;4.90;99.90
25436;DHT22;13363;52.772;-3.890;2023-03-14T06:40:24;4.90;99.90
25436;DHT22;13363;52.772;-3.890;2023-03-14T06:42:49;5.00;99.90
25436;DHT22;13363;52.772;-3.890;2023-03-14T06:45:15;5.00;99.90
25436;DHT22;13363;52.772;-3.890;2023-03-14T06:47:41;5.20;99.90
25436;DHT22;13363;52.772;-3.890;2023-03-14T06:50:08;5.10;99.90
25436;DHT22;13363;52.772;-3.890;2023-03-14T06:52:34;5.20;99.90
25436;DHT22;13363;52.772;-3.890;2023-03-14T06:55:00;5.10;99.90
25436;DHT22;13363;52.772;-3.890;2023-03-14T06:57:25;5.10;99.90
25436;DHT22;13363;52.772;-3.890;2023-03-14T06:59:51;5.00;99.90
25436;DHT22;13363;52.772;-3.890;2023-03-14T07:02:17;4.90;99.90
25436;DHT22;13363;52.772;-3.890;2023-03-14T07:04:42;4.90;99.90
25436;DHT22;13363;52.772;-3.890;2023-03-14T07:07:08;4.80;99.90
25436;DHT22;13363;52.772;-3.890;2023-03-14T07:09:34;4.70;99.90
25436;DHT22;13363;52.772;-3.890;2023-03-14T07:12:00;4.70;99.90
25436;DHT22;13363;52.772;-3.890;2023-03-14T07:14:26;4.80;99.90
25436;DHT22;13363;52.772;-3.890;2023-03-14T07:16:52;4.70;99.90
25436;DHT22;13363;52.772;-3.890;2023-03-14T07:19:17;4.80;99.90
25436;DHT22;13363;52.772;-3.890;2023-03-14T07:21:43;4.80;99.90
25436;DHT22;13363;52.772;-3.890;2023-03-14T07:24:09;4.80;99.90
25436;DHT22;13363;52.772;-3.890;2023-03-14T07:26:35;4.80;99.90
25436;DHT22;13363;52.772;-3.890;2023-03-14T07:29:01;4.80;99.90
25436;DHT22;13363;52.772;-3.890;2023-03-14T07:31:29;4.90;99.90
25436;DHT22;13363;52.772;-3.890;2023-03-14T07:33:54;5.00;99.90
25436;DHT22;13363;52.772;-3.890;2023-03-14T07:36:20;5.10;99.90
25436;DHT22;13363;52.772;-3.890;2023-03-14T07:38:46;5.20;99.90
25436;DHT22;13363;52.772;-3.890;2023-03-14T07:41:12;5.30;99.90
25436;DHT22;13363;52.772;-3.890;2023-03-14T07:43:38;5.60;99.90
25436;DHT22;13363;52.772;-3.890;2023-03-14T07:46:04;5.70;99.90
25436;DHT22;13363;52.772;-3.890;2023-03-14T07:48:30;5.80;99.90
25436;DHT22;13363;52.772;-3.890;2023-03-14T07:50:56;5.80;99.90
25436;DHT22;13363;52.772;-3.890;2023-03-14T07:53:23;5.80;99.90
25436;DHT22;13363;52.772;-3.890;2023-03-14T07:55:53;5.80;99.90
25436;DHT22;13363;52.772;-3.890;2023-03-14T07:58:20;5.80;99.90
25436;DHT22;13363;52.772;-3.890;2023-03-14T08:00:47;5.70;99.90
25436;DHT22;13363;52.772;-3.890;2023-03-14T08:03:13;5.60;99.90
25436;DHT22;13363;52.772;-3.890;2023-03-14T08:05:39;5.50;99.90
25436;DHT22;13363;52.772;-3.890;2023-03-14T08:08:05;5.50;99.90
25436;DHT22;13363;52.772;-3.890;2023-03-14T08:10:31;5.40;99.90
25436;DHT22;13363;52.772;-3.890;2023-03-14T08:12:58;5.40;99.90
25436;DHT22;13363;52.772;-3.890;2023-03-14T08:15:25;5.50;99.90
25436;DHT22;13363;52.772;-3.890;2023-03-14T08:17:51;5.60;99.90
25436;DHT22;13363;52.772;-3.890;2023-03-14T08:20:23;5.70;99.90
25436;DHT22;13363;52.772;-3.890;2023-03-14T08:22:48;6.10;99.90
25436;DHT22;13363;52.772;-3.890;2023-03-14T08:25:15;7.20;99.90
25436;DHT22;13363;52.772;-3.890;2023-03-14T08:27:41;8.50;99.90
25436;DHT22;13363;52.772;-3.890;2023-03-14T08:30:12;9.90;99.90
25436;DHT22;13363;52.772;-3.890;2023-03-14T08:32:38;11.40;99.90
25436;DHT22;13363;52.772;-3.890;2023-03-14T08:35:05;12.10;99.90
25436;DHT22;13363;52.772;-3.890;2023-03-14T08:37:32;12.50;99.90
25436;DHT22;13363;52.772;-3.890;2023-03-14T08:39:58;13.20;99.90
25436;DHT22;13363;52.772;-3.890;2023-03-14T08:42:24;14.50;99.90
25436;DHT22;13363;52.772;-3.890;2023-03-14T08:44:51;15.00;99.90
25436;DHT22;13363;52.772;-3.890;2023-03-14T08:47:17;14.60;99.90
25436;DHT22;13363;52.772;-3.890;2023-03-14T08:49:42;15.60;99.90
25436;DHT22;13363;52.772;-3.890;2023-03-14T08:52:08;15.60;99.90
25436;DHT22;13363;52.772;-3.890;2023-03-14T08:54:34;15.40;99.90
25436;DHT22;13363;52.772;-3.890;2023-03-14T08:57:00;15.80;99.90
25436;DHT22;13363;52.772;-3.890;2023-03-14T08:59:26;15.60;99.90
25436;DHT22;13363;52.772;-3.890;2023-03-14T09:01:52;15.60;99.90
25436;DHT22;13363;52.772;-3.890;2023-03-14T09:04:17;16.20;99.90
25436;DHT22;13363;52.772;-3.890;2023-03-14T09:06:43;15.10;99.90
25436;DHT22;13363;52.772;-3.890;2023-03-14T09:09:09;12.90;99.90
25436;DHT22;13363;52.772;-3.890;2023-03-14T09:11:35;12.40;99.90
25436;DHT22;13363;52.772;-3.890;2023-03-14T09:14:00;12.50;99.90
25436;DHT22;13363;52.772;-3.890;2023-03-14T09:16:26;13.30;99.90
25436;DHT22;13363;52.772;-3.890;2023-03-14T09:18:52;14.50;99.90
25436;DHT22;13363;52.772;-3.890;2023-03-14T09:21:22;14.70;99.90
25436;DHT22;13363;52.772;-3.890;2023-03-14T09:23:48;15.40;99.90
25436;DHT22;13363;52.772;-3.890;2023-03-14T09:26:14;16.00;99.90
25436;DHT22;13363;52.772;-3.890;2023-03-14T09:28:40;15.80;99.90
25436;DHT22;13363;52.772;-3.890;2023-03-14T09:31:11;15.80;99.90
25436;DHT22;13363;52.772;-3.890;2023-03-14T09:33:38;14.80;99.90
25436;DHT22;13363;52.772;-3.890;2023-03-14T09:36:05;14.00;99.90
25436;DHT22;13363;52.772;-3.890;2023-03-14T09:38:31;13.00;99.90
25436;DHT22;13363;52.772;-3.890;2023-03-14T09:41:00;13.20;99.90
25436;DHT22;13363;52.772;-3.890;2023-03-14T09:43:29;13.20;99.90
25436;DHT22;13363;52.772;-3.890;2023-03-14T09:45:57;13.70;99.90
25436;DHT22;13363;52.772;-3.890;2023-03-14T09:48:29;12.90;99.90
25436;DHT22;13363;52.772;-3.890;2023-03-14T09:50:57;12.90;99.90
25436;DHT22;13363;52.772;-3.890;2023-03-14T09:53:55;12.40;99.90
25436;DHT22;13363;52.772;-3.890;2023-03-14T09:56:28;12.60;99.90
25436;DHT22;13363;52.772;-3.890;2023-03-14T09:58:58;13.00;99.90
25436;DHT22;13363;52.772;-3.890;2023-03-14T10:01:28;12.80;99.90
25436;DHT22;13363;52.772;-3.890;2023-03-14T10:03:56;12.70;99.90
25436;DHT22;13363;52.772;-3.890;2023-03-14T10:06:27;12.80;99.90
25436;DHT22;13363;52.772;-3.890;2023-03-14T10:08:55;12.00;99.90
25436;DHT22;13363;52.772;-3.890;2023-03-14T10:11:22;11.50;99.90
25436;DHT22;13363;52.772;-3.890;2023-03-14T10:14:09;11.40;99.90
25436;DHT22;13363;52.772;-3.890;2023-03-14T10:16:42;11.00;99.90
25436;DHT22;13363;52.772;-3.890;2023-03-14T10:19:14;10.50;99.90
25436;DHT22;13363;52.772;-3.890;2023-03-14T10:21:44;10.30;99.90
25436;DHT22;13363;52.772;-3.890;2023-03-14T10:24:18;10.30;99.90
25436;DHT22;13363;52.772;-3.890;2023-03-14T10:26:48;10.70;99.90
25436;DHT22;13363;52.772;-3.890;2023-03-14T10:29:14;10.80;99.90
25436;DHT22;13363;52.772;-3.890;2023-03-14T10:31:49;11.30;99.90
25436;DHT22;13363;52.772;-3.890;2023-03-14T10:34:21;11.70;93.30
25436;DHT22;13363;52.772;-3.890;2023-03-14T10:36:52;11.00;99.90
25436;DHT22;13363;52.772;-3.890;2023-03-14T10:39:25;10.70;1.00
25436;DHT22;13363;52.772;-3.890;2023-03-14T10:42:03;10.40;99.90
25436;DHT22;13363;52.772;-3.890;2023-03-14T10:44:30;10.90;99.90
25436;DHT22;13363;52.772;-3.890;2023-03-14T10:46:59;10.80;99.90
25436;DHT22;13363;52.772;-3.890;2023-03-14T10:49:31;11.20;99.90
25436;DHT22;13363;52.772;-3.890;2023-03-14T10:52:09;11.50;99.90
25436;DHT22;13363;52.772;-3.890;2023-03-14T10:54:38;11.40;99.90
25436;DHT22;13363;52.772;-3.890;2023-03-14T10:57:06;11.20;99.90
25436;DHT22;13363;52.772;-3.890;2023-03-14T10:59:38;10.90;1.00
25436;DHT22;13363;52.772;-3.890;2023-03-14T11:08:02;12.40;99.90
25436;DHT22;13363;52.772;-3.890;2023-03-14T11:10:33;12.10;1.00
25436;DHT22;13363;52.772;-3.890;2023-03-14T11:21:02;11.20;1.00
25436;DHT22;13363;52.772;-3.890;2023-03-14T11:28:50;11.70;99.90
25436;DHT22;13363;52.772;-3.890;2023-03-14T11:31:32;11.80;99.90
25436;DHT22;13363;52.772;-3.890;2023-03-14T11:34:06;11.80;16.50
25436;DHT22;13363;52.772;-3.890;2023-03-14T11:37:22;11.40;99.90
25436;DHT22;13363;52.772;-3.890;2023-03-14T11:39:43;11.10;99.90
25436;DHT22;13363;52.772;-3.890;2023-03-14T11:42:16;11.00;1.00
25436;DHT22;13363;52.772;-3.890;2023-03-14T11:44:45;11.00;1.00
25436;DHT22;13363;52.772;-3.890;2023-03-14T11:47:24;11.10;99.90
25436;DHT22;13363;52.772;-3.890;2023-03-14T11:50:19;11.00;1.00
25436;DHT22;13363;52.772;-3.890;2023-03-14T11:52:52;10.90;99.90
25436;DHT22;13363;52.772;-3.890;2023-03-14T11:55:35;11.00;99.90
25436;DHT22;13363;52.772;-3.890;2023-03-14T11:58:19;10.70;99.90
25436;DHT22;13363;52.772;-3.890;2023-03-14T12:00:47;10.50;99.90
25436;DHT22;13363;52.772;-3.890;2023-03-14T12:05:56;10.60;99.90
25436;DHT22;13363;52.772;-3.890;2023-03-14T12:11:13;10.40;99.90
25436;DHT22;13363;52.772;-3.890;2023-03-14T12:13:41;10.50;99.90
25436;DHT22;13363;52.772;-3.890;2023-03-14T12:18:48;11.10;1.00
25436;DHT22;13363;52.772;-3.890;2023-03-14T12:21:14;11.60;1.00
25436;DHT22;13363;52.772;-3.890;2023-03-14T12:23:52;11.70;1.00
25436;DHT22;13363;52.772;-3.890;2023-03-14T12:26:23;11.70;1.00
25436;DHT22;13363;52.772;-3.890;2023-03-14T12:28:51;11.40;1.00
25436;DHT22;13363;52.772;-3.890;2023-03-14T12:42:20;9.80;99.90
25436;DHT22;13363;52.772;-3.890;2023-03-14T12:44:50;10.00;99.90
25436;DHT22;13363;52.772;-3.890;2023-03-14T12:49:47;10.20;1.00
25436;DHT22;13363;52.772;-3.890;2023-03-14T12:52:19;10.00;99.90
25436;DHT22;13363;52.772;-3.890;2023-03-14T12:57:35;10.20;99.90
25436;DHT22;13363;52.772;-3.890;2023-03-14T13:00:32;9.90;1.00
25436;DHT22;13363;52.772;-3.890;2023-03-14T13:03:19;9.80;1.00
25436;DHT22;13363;52.772;-3.890;2023-03-14T13:05:58;9.70;99.90
25436;DHT22;13363;52.772;-3.890;2023-03-14T13:08:45;9.90;99.90
25436;DHT22;13363;52.772;-3.890;2023-03-14T13:11:15;9.70;1.00
25436;DHT22;13363;52.772;-3.890;2023-03-14T13:13:56;9.50;1.00
25436;DHT22;13363;52.772;-3.890;2023-03-14T13:16:22;9.50;1.00
25436;DHT22;13363;52.772;-3.890;2023-03-14T13:18:58;9.40;20.80
25436;DHT22;13363;52.772;-3.890;2023-03-14T13:21:27;9.50;1.00
25436;DHT22;13363;52.772;-3.890;2023-03-14T13:24:00;9.60;99.90
25436;DHT22;13363;52.772;-3.890;2023-03-14T13:26:39;9.60;1.00
25436;DHT22;13363;52.772;-3.890;2023-03-14T13:29:25;9.80;99.90
25436;DHT22;13363;52.772;-3.890;2023-03-14T13:31:54;9.60;99.90
25436;DHT22;13363;52.772;-3.890;2023-03-14T13:34:21;9.60;99.90
25436;DHT22;13363;52.772;-3.890;2023-03-14T14:41:33;9.40;99.90
25436;DHT22;13363;52.772;-3.890;2023-03-14T14:44:02;9.30;99.90
25436;DHT22;13363;52.772;-3.890;2023-03-14T14:46:31;9.20;99.90
25436;DHT22;13363;52.772;-3.890;2023-03-14T14:49:06;9.30;99.90
25436;DHT22;13363;52.772;-3.890;2023-03-14T14:51:43;9.30;99.90
25436;DHT22;13363;52.772;-3.890;2023-03-14T14:54:31;9.20;99.90
25436;DHT22;13363;52.772;-3.890;2023-03-14T14:57:02;9.30;99.90
25436;DHT22;13363;52.772;-3.890;2023-03-14T14:59:28;9.20;99.90
25436;DHT22;13363;52.772;-3.890;2023-03-14T15:01:56;9.20;99.90
25436;DHT22;13363;52.772;-3.890;2023-03-14T15:04:23;9.10;98.20
25436;DHT22;13363;52.772;-3.890;2023-03-14T15:06:49;8.90;99.90
25436;DHT22;13363;52.772;-3.890;2023-03-14T15:09:15;8.80;99.90
25436;DHT22;13363;52.772;-3.890;2023-03-14T15:11:45;8.90;99.90
25436;DHT22;13363;52.772;-3.890;2023-03-14T15:14:11;9.00;99.90
25436;DHT22;13363;52.772;-3.890;2023-03-14T15:16:38;8.80;99.90
25436;DHT22;13363;52.772;-3.890;2023-03-14T15:19:23;8.80;99.90
25436;DHT22;13363;52.772;-3.890;2023-03-14T15:21:50;7.70;46.90
25436;DHT22;13363;52.772;-3.890;2023-03-14T15:24:16;7.30;99.90
25436;DHT22;13363;52.772;-3.890;2023-03-14T15:26:42;7.20;99.90
25436;DHT22;13363;52.772;-3.890;2023-03-14T15:29:10;7.10;99.90
25436;DHT22;13363;52.772;-3.890;2023-03-14T15:31:38;6.80;99.90
25436;DHT22;13363;52.772;-3.890;2023-03-14T15:34:03;6.80;99.90
25436;DHT22;13363;52.772;-3.890;2023-03-14T15:36:32;6.90;99.90
25436;DHT22;13363;52.772;-3.890;2023-03-14T15:38:58;6.90;99.90
25436;DHT22;13363;52.772;-3.890;2023-03-14T15:41:25;6.90;99.90
25436;DHT22;13363;52.772;-3.890;2023-03-14T15:43:53;6.80;99.90
25436;DHT22;13363;52.772;-3.890;2023-03-14T15:46:19;6.90;99.90
25436;DHT22;13363;52.772;-3.890;2023-03-14T15:48:47;7.00;99.90
25436;DHT22;13363;52.772;-3.890;2023-03-14T15:51:14;7.20;99.90
25436;DHT22;13363;52.772;-3.890;2023-03-14T15:53:40;7.20;99.90
25436;DHT22;13363;52.772;-3.890;2023-03-14T15:56:07;7.40;99.90
25436;DHT22;13363;52.772;-3.890;2023-03-14T15:58:35;7.50;99.90
25436;DHT22;13363;52.772;-3.890;2023-03-14T16:01:02;7.50;99.90
25436;DHT22;13363;52.772;-3.890;2023-03-14T16:03:30;7.70;99.90
25436;DHT22;13363;52.772;-3.890;2023-03-14T16:05:55;7.70;99.90
25436;DHT22;13363;52.772;-3.890;2023-03-14T16:08:23;7.50;99.90
25436;DHT22;13363;52.772;-3.890;2023-03-14T16:10:50;7.50;99.90
25436;DHT22;13363;52.772;-3.890;2023-03-14T16:13:16;7.30;99.90
25436;DHT22;13363;52.772;-3.890;2023-03-14T16:15:41;7.30;99.90
25436;DHT22;13363;52.772;-3.890;2023-03-14T16:18:07;7.40;99.90
25436;DHT22;13363;52.772;-3.890;2023-03-14T16:20:33;7.60;99.90
25436;DHT22;13363;52.772;-3.890;2023-03-14T16:22:58;7.70;99.90
25436;DHT22;13363;52.772;-3.890;2023-03-14T16:25:24;7.80;99.90
25436;DHT22;13363;52.772;-3.890;2023-03-14T16:27:50;7.80;99.90
25436;DHT22;13363;52.772;-3.890;2023-03-14T16:30:15;7.80;99.90
25436;DHT22;13363;52.772;-3.890;2023-03-14T16:32:41;7.70;99.90
25436;DHT22;13363;52.772;-3.890;2023-03-14T16:35:07;7.80;99.90
25436;DHT22;13363;52.772;-3.890;2023-03-14T16:37:33;7.80;99.90
25436;DHT22;13363;52.772;-3.890;2023-03-14T16:39:59;7.80;99.90
25436;DHT22;13363;52.772;-3.890;2023-03-14T16:42:24;7.80;99.90
25436;DHT22;13363;52.772;-3.890;2023-03-14T16:44:50;7.90;99.90
25436;DHT22;13363;52.772;-3.890;2023-03-14T16:47:16;8.00;99.90
25436;DHT22;13363;52.772;-3.890;2023-03-14T16:49:41;8.00;99.90
25436;DHT22;13363;52.772;-3.890;2023-03-14T16:52:08;8.00;99.90
25436;DHT22;13363;52.772;-3.890;2023-03-14T16:54:46;8.00;99.90
25436;DHT22;13363;52.772;-3.890;2023-03-14T16:57:12;8.00;99.90
25436;DHT22;13363;52.772;-3.890;2023-03-14T16:59:38;8.00;99.90
25436;DHT22;13363;52.772;-3.890;2023-03-14T17:02:04;7.90;99.90
25436;DHT22;13363;52.772;-3.890;2023-03-14T17:04:29;7.80;99.90
25436;DHT22;13363;52.772;-3.890;2023-03-14T17:06:55;7.80;99.90
25436;DHT22;13363;52.772;-3.890;2023-03-14T17:09:21;7.80;99.90
25436;DHT22;13363;52.772;-3.890;2023-03-14T17:11:46;7.80;99.90
25436;DHT22;13363;52.772;-3.890;2023-03-14T17:14:12;7.80;99.90
25436;DHT22;13363;52.772;-3.890;2023-03-14T17:16:38;7.90;99.90
25436;DHT22;13363;52.772;-3.890;2023-03-14T17:19:03;7.70;99.90
25436;DHT22;13363;52.772;-3.890;2023-03-14T17:21:29;7.40;99.90
25436;DHT22;13363;52.772;-3.890;2023-03-14T17:23:55;7.40;99.90